Rock Island Junction, Arkansas
Current Conditions -  °F | °C
As of 9:53 PM on Sunday 23 Nov 2014 (Local Time) from KLLQ Reporting Station
Clear Clear  
Wind Chill: 63°   Ceiling: Unl
Heat Index: 63°   Visibility: 10mi
Dew Point: 58°   Wind: 12mph
Humidity: 84%   Direction: 220°SW
Pressure: 29.5"   Gusts: 25mph
Location:  33.37°N, 92.1129°W
Report Text: KLLQ 240353Z AUTO 22010G22KT 10SM CLR 17/14 A2950 RMK AO2 SLP988 T01720144
Loading
Personal Weather Stations






























Interactive Weather Map New forecast layout! Learn more

10-Day Weather Forecast

Advertisements
Track Severe Weather on mobile